createdAt,value
2022-11-15T00:00:48.651Z,100675.69
2022-11-15T00:03:35.684Z,100669.47
2022-11-15T00:06:21.296Z,100668.31
2022-11-15T00:09:09.223Z,100670.34
2022-11-15T00:12:06.313Z,100670.09
2022-11-15T00:14:57.994Z,100661.19
2022-11-15T00:17:43.729Z,100650.69
2022-11-15T00:20:29.373Z,100654.19
2022-11-15T00:23:15.247Z,100652.78
2022-11-15T00:26:00.740Z,100647.84
2022-11-15T00:28:46.695Z,100645.06
2022-11-15T00:31:32.922Z,100641.78
2022-11-15T00:34:26.325Z,100642.41
2022-11-15T00:37:11.629Z,100631.78
2022-11-15T00:39:56.687Z,100626.44
2022-11-15T00:42:48.601Z,100622.94
2022-11-15T00:45:36.654Z,100622.00
2022-11-15T00:48:22.810Z,100628.28
2022-11-15T00:51:08.453Z,100617.56
2022-11-15T00:53:54.776Z,100614.16
2022-11-15T00:56:41.237Z,100613.38
2022-11-15T00:59:29.413Z,100620.09
2022-11-15T01:02:14.921Z,100611.38
2022-11-15T01:05:00.386Z,100608.81
2022-11-15T01:07:45.668Z,100607.97
2022-11-15T01:10:39.577Z,100613.88
2022-11-15T01:13:28.668Z,100606.25
2022-11-15T01:16:23.424Z,100601.03
2022-11-15T01:19:11.567Z,100608.88
2022-11-15T01:22:00.948Z,100604.03
2022-11-15T01:24:48.086Z,100600.47
2022-11-15T01:27:37.700Z,100592.41
2022-11-15T01:30:23.114Z,100588.91
2022-11-15T01:33:10.789Z,100587.91
2022-11-15T01:35:56.393Z,100588.13
2022-11-15T01:38:44.181Z,100582.63
2022-11-15T01:41:33.522Z,100576.63
2022-11-15T01:44:32.158Z,100573.28
2022-11-15T01:47:18.427Z,100571.72
2022-11-15T01:50:04.459Z,100563.00
2022-11-15T01:52:50.196Z,100558.44
2022-11-15T01:55:35.965Z,100558.03
2022-11-15T01:58:21.383Z,100556.41
2022-11-15T02:01:06.727Z,100565.31
2022-11-15T02:03:55.284Z,100555.31
2022-11-15T02:06:41.114Z,100551.75
2022-11-15T02:09:26.223Z,100542.88
2022-11-15T02:12:11.806Z,100545.75
2022-11-15T02:14:59.914Z,100551.84
2022-11-15T02:18:04.078Z,100542.84
2022-11-15T02:20:54.925Z,100545.91
2022-11-15T02:23:43.229Z,100546.28
2022-11-15T02:26:38.286Z,100541.06
2022-11-15T02:29:44.065Z,100542.94
2022-11-15T02:32:37.476Z,100543.94
2022-11-15T02:35:28.714Z,100545.16
2022-11-15T02:38:13.603Z,100548.59
2022-11-15T02:41:33.159Z,100545.94
2022-11-15T02:44:20.930Z,100544.22
2022-11-15T02:47:16.169Z,100544.50
2022-11-15T02:50:09.263Z,100543.59
2022-11-15T02:52:54.324Z,100536.88
2022-11-15T02:55:42.601Z,100529.09
2022-11-15T02:58:27.690Z,100525.03
2022-11-15T03:01:15.806Z,100530.25
2022-11-15T03:04:05.012Z,100530.16
2022-11-15T03:07:07.056Z,100529.41
2022-11-15T03:09:56.523Z,100526.03
2022-11-15T03:12:47.404Z,100525.19
2022-11-15T03:15:33.224Z,100524.31
2022-11-15T03:18:22.957Z,100521.84
2022-11-15T03:21:09.575Z,100522.03
2022-11-15T03:23:56.324Z,100518.56
2022-11-15T03:26:41.744Z,100516.91
2022-11-15T03:29:34.160Z,100513.50
2022-11-15T03:32:20.721Z,100518.88
2022-11-15T03:35:06.633Z,100508.41
2022-11-15T03:37:53.590Z,100504.16
2022-11-15T03:40:42.976Z,100517.19
2022-11-15T03:43:34.137Z,100510.13
2022-11-15T03:46:49.134Z,100509.25
2022-11-15T03:49:35.400Z,100505.88
2022-11-15T03:52:21.401Z,100508.50
2022-11-15T03:55:07.489Z,100512.19
2022-11-15T03:57:54.620Z,100506.06
2022-11-15T04:00:39.852Z,100510.75
2022-11-15T04:03:25.361Z,100501.91
2022-11-15T04:06:10.927Z,100505.47
2022-11-15T04:08:55.963Z,100498.72
2022-11-15T04:11:41.021Z,100493.25
2022-11-15T04:14:26.146Z,100491.59
2022-11-15T04:17:11.305Z,100497.63
2022-11-15T04:20:15.575Z,100498.38
2022-11-15T04:23:20.797Z,100502.66
2022-11-15T04:26:13.757Z,100493.09
2022-11-15T04:29:17.955Z,100490.59
2022-11-15T04:32:04.440Z,100495.09
2022-11-15T04:34:52.272Z,100489.97
2022-11-15T04:37:37.832Z,100488.91
2022-11-15T04:40:23.711Z,100485.44
2022-11-15T04:43:09.631Z,100481.97
2022-11-15T04:45:58.740Z,100482.06
2022-11-15T04:48:47.478Z,100473.34
2022-11-15T04:51:43.053Z,100476.91
2022-11-15T04:54:28.567Z,100479.25
2022-11-15T04:57:14.166Z,100485.34
2022-11-15T04:59:59.312Z,100481.09
2022-11-15T05:03:09.591Z,100475.22
2022-11-15T05:05:55.392Z,100478.47
2022-11-15T05:08:40.534Z,100465.16
2022-11-15T05:11:28.456Z,100474.00
2022-11-15T05:14:14.545Z,100474.91
2022-11-15T05:16:59.684Z,100481.91
2022-11-15T05:19:45.741Z,100475.84
2022-11-15T05:22:36.562Z,100475.06
2022-11-15T05:25:22.551Z,100476.78
2022-11-15T05:28:07.912Z,100479.41
2022-11-15T05:30:52.922Z,100472.34
2022-11-15T05:33:41.870Z,100474.00
2022-11-15T05:36:35.896Z,100468.94
2022-11-15T05:39:21.159Z,100472.56
2022-11-15T05:42:06.120Z,100484.03
2022-11-15T05:44:51.149Z,100472.84
2022-11-15T05:47:36.575Z,100477.13
2022-11-15T05:50:22.144Z,100475.31
2022-11-15T05:53:07.871Z,100476.25
2022-11-15T05:55:52.995Z,100481.66
2022-11-15T05:58:38.045Z,100479.09
2022-11-15T06:01:23.765Z,100476.63
2022-11-15T06:04:09.016Z,100473.97
2022-11-15T06:06:54.668Z,100485.28
2022-11-15T06:09:40.061Z,100494.97
2022-11-15T06:12:25.250Z,100484.56
2022-11-15T06:15:10.395Z,100488.91
2022-11-15T06:17:59.476Z,100490.78
2022-11-15T06:20:44.749Z,100488.13
2022-11-15T06:23:32.633Z,100486.34
2022-11-15T06:26:18.259Z,100488.13
2022-11-15T06:29:05.487Z,100491.63
2022-11-15T06:31:50.927Z,100486.41
2022-11-15T06:34:37.094Z,100488.06
2022-11-15T06:37:22.118Z,100489.97
2022-11-15T06:40:08.395Z,100486.50
2022-11-15T06:42:58.258Z,100494.47
2022-11-15T06:45:43.259Z,100502.38
2022-11-15T06:48:28.729Z,100489.19
2022-11-15T06:51:13.641Z,100493.47
2022-11-15T06:53:58.518Z,100503.16
2022-11-15T06:56:45.026Z,100499.66
2022-11-15T06:59:30.361Z,100503.88
2022-11-15T07:02:17.060Z,100499.34
2022-11-15T07:05:02.535Z,100508.94
2022-11-15T07:07:52.320Z,100507.09
2022-11-15T07:10:37.505Z,100497.31
2022-11-15T07:13:25.552Z,100509.59
2022-11-15T07:16:11.615Z,100512.03
2022-11-15T07:18:56.878Z,100513.59
2022-11-15T07:21:41.933Z,100510.06
2022-11-15T07:24:26.844Z,100517.88
2022-11-15T07:27:12.451Z,100516.81
2022-11-15T07:29:58.008Z,100524.56
2022-11-15T07:32:43.453Z,100519.97
2022-11-15T07:35:29.282Z,100527.72
2022-11-15T07:38:16.013Z,100522.41
2022-11-15T07:41:02.906Z,100523.97
2022-11-15T07:43:48.155Z,100524.66
2022-11-15T07:46:33.108Z,100521.00
2022-11-15T07:49:18.152Z,100526.13
2022-11-15T07:52:05.398Z,100513.78
2022-11-15T07:54:50.445Z,100524.97
2022-11-15T07:57:35.452Z,100519.56
2022-11-15T08:00:20.578Z,100510.59
2022-11-15T08:03:09.935Z,100513.91
2022-11-15T08:05:58.104Z,100507.38
2022-11-15T08:08:43.487Z,100510.66
2022-11-15T08:11:28.897Z,100504.28
2022-11-15T08:14:14.144Z,100496.16
2022-11-15T08:16:59.576Z,100502.94
2022-11-15T08:19:44.543Z,100505.13
2022-11-15T08:22:30.032Z,100501.34
2022-11-15T08:25:15.117Z,100502.13
2022-11-15T08:28:02.027Z,100495.84
2022-11-15T08:30:47.108Z,100491.25
2022-11-15T08:33:32.851Z,100494.59
2022-11-15T08:36:18.331Z,100492.44
2022-11-15T08:39:04.248Z,100485.84
2022-11-15T08:41:49.787Z,100495.47
2022-11-15T08:44:35.094Z,100482.94
2022-11-15T08:47:20.143Z,100483.59
2022-11-15T08:50:05.383Z,100484.75
2022-11-15T08:52:50.669Z,100481.88
2022-11-15T08:55:39.107Z,100482.66
2022-11-15T08:58:24.538Z,100484.97
2022-11-15T09:01:19.351Z,100490.72
2022-11-15T09:04:05.140Z,100490.53
2022-11-15T09:06:50.628Z,100486.94
2022-11-15T09:09:36.137Z,100483.97
2022-11-15T09:12:21.605Z,100494.28
2022-11-15T09:15:06.927Z,100494.84
2022-11-15T09:17:52.470Z,100489.56
2022-11-15T09:20:37.928Z,100501.34
2022-11-15T09:23:24.177Z,100489.84
2022-11-15T09:26:09.643Z,100493.78
2022-11-15T09:28:55.103Z,100494.47
2022-11-15T09:31:40.498Z,100495.06
2022-11-15T09:34:25.892Z,100487.66
2022-11-15T09:37:11.397Z,100490.75
2022-11-15T09:39:57.013Z,100492.81
2022-11-15T09:42:51.227Z,100498.72
2022-11-15T09:45:46.924Z,100487.16
2022-11-15T09:48:36.861Z,100481.03
2022-11-15T09:51:34.965Z,100486.31
2022-11-15T09:54:46.067Z,100487.84
2022-11-15T09:57:04.509Z,100484.75
2022-11-15T09:59:32.606Z,100474.56
2022-11-15T10:02:02.620Z,100482.84
2022-11-15T10:04:29.669Z,100482.56
2022-11-15T10:06:59.646Z,100474.19
2022-11-15T10:09:46.824Z,100473.53
2022-11-15T10:12:13.582Z,100468.72
2022-11-15T10:14:40.213Z,100463.47
2022-11-15T10:17:15.299Z,100463.19
2022-11-15T10:19:54.137Z,100462.81
2022-11-15T10:22:30.063Z,100462.25
2022-11-15T10:25:15.644Z,100459.34
2022-11-15T10:27:42.368Z,100456.13
2022-11-15T10:30:13.396Z,100447.38
2022-11-15T10:32:40.287Z,100444.84
2022-11-15T10:35:22.117Z,100436.13
2022-11-15T10:37:48.773Z,100437.25
2022-11-15T10:40:24.995Z,100432.19
2022-11-15T10:43:06.072Z,100425.88
2022-11-15T10:45:33.381Z,100413.63
2022-11-15T10:48:15.308Z,100417.94
2022-11-15T10:50:42.620Z,100411.56
2022-11-15T10:53:21.182Z,100411.34
2022-11-15T10:55:48.492Z,100398.63
2022-11-15T10:58:22.855Z,100399.91
2022-11-15T11:00:49.510Z,100385.56
2022-11-15T11:03:28.462Z,100385.78
2022-11-15T11:06:05.636Z,100391.53
2022-11-15T11:08:33.303Z,100384.06
2022-11-15T11:11:03.134Z,100381.91
2022-11-15T11:13:31.429Z,100377.53
2022-11-15T11:16:01.120Z,100376.16
2022-11-15T11:18:34.465Z,100375.41
2022-11-15T11:21:05.498Z,100372.50
2022-11-15T11:23:51.785Z,100367.91
2022-11-15T11:26:25.067Z,100360.47
2022-11-15T11:28:57.794Z,100369.38
2022-11-15T11:31:27.373Z,100369.59
2022-11-15T11:33:53.979Z,100369.34
2022-11-15T11:36:28.916Z,100353.56
2022-11-15T11:39:07.214Z,100356.25
2022-11-15T11:41:43.759Z,100358.94
2022-11-15T11:44:13.355Z,100351.19
2022-11-15T11:46:58.936Z,100369.06
2022-11-15T11:49:28.177Z,100360.34
2022-11-15T11:52:01.906Z,100359.38
2022-11-15T11:54:37.017Z,100354.06
2022-11-15T11:57:04.305Z,100358.56
2022-11-15T11:59:30.892Z,100352.59
2022-11-15T12:01:57.792Z,100351.13
2022-11-15T12:04:31.357Z,100345.09
2022-11-15T12:07:00.119Z,100340.81
2022-11-15T12:09:30.461Z,100346.34
2022-11-15T12:12:17.644Z,100341.97
2022-11-15T12:14:55.838Z,100335.03
2022-11-15T12:17:26.308Z,100328.59
2022-11-15T12:20:13.220Z,100330.28
2022-11-15T12:22:53.388Z,100337.13
2022-11-15T12:25:22.415Z,100331.34
2022-11-15T12:27:55.027Z,100330.16
2022-11-15T12:30:22.242Z,100321.84
2022-11-15T12:32:50.714Z,100318.88
2022-11-15T12:35:28.541Z,100313.63
2022-11-15T12:37:58.995Z,100318.09
2022-11-15T12:40:25.744Z,100316.63
2022-11-15T12:43:02.591Z,100313.81
2022-11-15T12:45:29.265Z,100314.59
2022-11-15T12:47:57.368Z,100309.63
2022-11-15T12:50:42.859Z,100299.03
2022-11-15T12:53:25.122Z,100301.91
2022-11-15T12:56:04.059Z,100308.06
2022-11-15T12:58:47.721Z,100307.03
2022-11-15T13:01:33.304Z,100305.53
2022-11-15T13:04:12.239Z,100297.25
2022-11-15T13:06:43.488Z,100294.31
2022-11-15T13:09:48.676Z,100285.47
2022-11-15T13:12:27.501Z,100285.84
2022-11-15T13:15:00.917Z,100293.88
2022-11-15T13:17:32.245Z,100284.25
2022-11-15T13:19:59.826Z,100279.88
2022-11-15T13:22:51.848Z,100279.03
2022-11-15T13:25:20.251Z,100274.66
2022-11-15T13:27:48.405Z,100276.72
2022-11-15T13:30:16.677Z,100275.28
2022-11-15T13:32:43.248Z,100272.94
2022-11-15T13:35:09.813Z,100275.28
2022-11-15T13:37:36.663Z,100275.75
2022-11-15T13:40:21.586Z,100281.63
2022-11-15T13:42:48.201Z,100275.84
2022-11-15T13:45:16.126Z,100278.47
2022-11-15T13:47:42.715Z,100280.97
2022-11-15T13:50:12.692Z,100279.06
2022-11-15T13:52:40.615Z,100281.06
2022-11-15T13:55:12.232Z,100286.41
2022-11-15T13:57:43.894Z,100282.38
2022-11-15T14:00:25.755Z,100285.63
2022-11-15T14:02:52.352Z,100278.88
2022-11-15T14:05:20.108Z,100285.88
2022-11-15T14:07:59.856Z,100278.91
2022-11-15T14:10:28.837Z,100277.16
2022-11-15T14:12:55.519Z,100275.50
2022-11-15T14:15:31.344Z,100279.97
2022-11-15T14:17:58.036Z,100272.78
2022-11-15T14:20:29.557Z,100282.50
2022-11-15T14:22:56.967Z,100275.28
2022-11-15T14:25:24.801Z,100274.53
2022-11-15T14:28:10.607Z,100282.25
2022-11-15T14:30:37.277Z,100279.81
2022-11-15T14:33:13.034Z,100277.03
2022-11-15T14:35:39.716Z,100281.66
2022-11-15T14:38:06.328Z,100277.31
2022-11-15T14:40:33.032Z,100273.94
2022-11-15T14:42:59.650Z,100274.69
2022-11-15T14:45:27.776Z,100274.84
2022-11-15T14:47:54.420Z,100265.66
2022-11-15T14:50:21.616Z,100265.19
2022-11-15T14:52:48.917Z,100260.97
2022-11-15T14:55:15.509Z,100263.44
2022-11-15T14:57:42.139Z,100263.44
2022-11-15T15:00:10.033Z,100261.53
2022-11-15T15:02:39.836Z,100253.84
2022-11-15T15:05:16.855Z,100254.09
2022-11-15T15:07:43.687Z,100255.66
2022-11-15T15:10:39.660Z,100256.63
2022-11-15T15:12:57.184Z,100261.94
2022-11-15T15:15:33.064Z,100256.41
2022-11-15T15:17:59.730Z,100257.56
2022-11-15T15:20:26.402Z,100261.91
2022-11-15T15:22:53.057Z,100250.75
2022-11-15T15:25:28.429Z,100247.47
2022-11-15T15:27:55.609Z,100254.78
2022-11-15T15:30:26.827Z,100249.56
2022-11-15T15:32:53.524Z,100247.97
2022-11-15T15:35:20.143Z,100245.53
2022-11-15T15:37:47.537Z,100239.69
2022-11-15T15:40:14.133Z,100234.66
2022-11-15T15:42:40.797Z,100231.81
2022-11-15T15:45:08.048Z,100233.31
2022-11-15T15:47:34.749Z,100228.19
2022-11-15T15:50:01.473Z,100227.56
2022-11-15T15:52:28.275Z,100223.19
2022-11-15T15:54:54.968Z,100230.38
2022-11-15T15:57:21.596Z,100232.59
2022-11-15T15:59:48.234Z,100229.38
2022-11-15T16:02:14.942Z,100226.59
2022-11-15T16:04:41.555Z,100228.28
2022-11-15T16:07:09.445Z,100220.44
2022-11-15T16:09:55.114Z,100225.94
2022-11-15T16:12:21.800Z,100223.66
2022-11-15T16:14:50.937Z,100218.38
2022-11-15T16:17:24.570Z,100209.13
2022-11-15T16:19:51.163Z,100227.66
2022-11-15T16:22:17.827Z,100226.28
2022-11-15T16:24:44.477Z,100230.69
2022-11-15T16:27:17.629Z,100226.44
2022-11-15T16:29:44.438Z,100222.41
2022-11-15T16:32:11.259Z,100221.72
2022-11-15T16:34:43.813Z,100218.44
2022-11-15T16:37:19.982Z,100222.13
2022-11-15T16:39:46.644Z,100215.34
2022-11-15T16:42:13.277Z,100220.22
2022-11-15T16:44:39.860Z,100226.50
2022-11-15T16:47:10.973Z,100228.38
2022-11-15T16:49:37.598Z,100232.25
2022-11-15T16:52:04.210Z,100228.94
2022-11-15T16:54:30.780Z,100228.09
2022-11-15T16:56:57.400Z,100223.53
2022-11-15T16:59:24.008Z,100221.38
2022-11-15T17:01:53.581Z,100229.22
2022-11-15T17:04:22.698Z,100222.13
2022-11-15T17:06:49.593Z,100219.56
2022-11-15T17:09:18.191Z,100220.72
2022-11-15T17:11:44.949Z,100220.13
2022-11-15T17:14:12.133Z,100222.56
2022-11-15T17:16:42.406Z,100218.22
2022-11-15T17:19:13.219Z,100219.53
2022-11-15T17:21:39.924Z,100215.25
2022-11-15T17:24:06.608Z,100215.00
2022-11-15T17:26:37.613Z,100209.13
2022-11-15T17:29:09.070Z,100214.13
2022-11-15T17:31:36.359Z,100202.63
2022-11-15T17:34:03.435Z,100209.81
2022-11-15T17:36:30.308Z,100199.28
2022-11-15T17:38:59.677Z,100198.66
2022-11-15T17:41:27.117Z,100196.25
2022-11-15T17:43:53.749Z,100199.94
2022-11-15T17:46:21.109Z,100197.03
2022-11-15T17:48:48.084Z,100197.88
2022-11-15T17:51:15.899Z,100194.38
2022-11-15T17:53:43.599Z,100201.09
2022-11-15T17:56:11.471Z,100209.97
2022-11-15T17:58:38.212Z,100202.81
2022-11-15T18:01:05.949Z,100207.16
2022-11-15T18:03:38.766Z,100206.03
2022-11-15T18:06:05.964Z,100198.16
2022-11-15T18:08:32.946Z,100191.00
2022-11-15T18:11:03.758Z,100187.78
2022-11-15T18:13:30.643Z,100187.88
2022-11-15T18:16:02.537Z,100176.44
2022-11-15T18:18:33.170Z,100175.31
2022-11-15T18:21:04.364Z,100172.47
2022-11-15T18:23:31.493Z,100163.69
2022-11-15T18:25:58.453Z,100169.84
2022-11-15T18:28:32.399Z,100168.13
2022-11-15T18:30:59.249Z,100170.13
2022-11-15T18:33:26.717Z,100171.16
2022-11-15T18:36:03.648Z,100159.44
2022-11-15T18:38:31.197Z,100163.75
2022-11-15T18:41:08.207Z,100166.41
2022-11-15T18:43:35.254Z,100174.44
2022-11-15T18:46:03.284Z,100164.84
2022-11-15T18:48:31.391Z,100171.06
2022-11-15T18:51:05.098Z,100166.59
2022-11-15T18:53:32.975Z,100168.31
2022-11-15T18:56:07.440Z,100170.97
2022-11-15T19:01:48.503Z,100167.97
2022-11-15T19:04:17.669Z,100163.41
2022-11-15T19:06:45.031Z,100165.31
2022-11-15T19:09:12.305Z,100154.72
2022-11-15T19:11:39.814Z,100152.09
2022-11-15T19:14:07.952Z,100155.66
2022-11-15T19:16:36.212Z,100159.25
2022-11-15T19:19:04.079Z,100161.78
2022-11-15T19:21:33.862Z,100158.97
2022-11-15T19:24:00.666Z,100160.97
2022-11-15T19:26:27.834Z,100154.88
2022-11-15T19:28:55.300Z,100162.66
2022-11-15T19:31:23.704Z,100166.25
2022-11-15T19:33:50.714Z,100158.97
2022-11-15T19:36:19.223Z,100159.16
2022-11-15T19:38:46.044Z,100158.56
2022-11-15T19:41:16.644Z,100161.13
2022-11-15T19:43:43.484Z,100155.19
2022-11-15T19:46:11.369Z,100152.22
2022-11-15T19:48:38.228Z,100160.63
2022-11-15T19:51:11.664Z,100159.03
2022-11-15T19:53:38.987Z,100156.38
2022-11-15T19:56:06.938Z,100162.53
2022-11-15T19:58:34.782Z,100165.09
2022-11-15T20:01:03.191Z,100162.75
2022-11-15T20:03:30.967Z,100167.25
2022-11-15T20:06:08.320Z,100160.63
2022-11-15T20:08:35.433Z,100165.78
2022-11-15T20:11:03.264Z,100158.28
2022-11-15T20:13:30.007Z,100159.88
2022-11-15T20:15:56.945Z,100156.38
2022-11-15T20:18:23.964Z,100162.91
2022-11-15T20:20:50.664Z,100164.63
2022-11-15T20:23:17.512Z,100172.53
2022-11-15T20:25:47.469Z,100165.66
2022-11-15T20:28:15.482Z,100161.38
2022-11-15T20:30:45.939Z,100160.53
2022-11-15T20:33:13.093Z,100157.81
2022-11-15T20:35:39.810Z,100162.25
2022-11-15T20:38:07.085Z,100157.41
2022-11-15T20:40:33.889Z,100164.53
2022-11-15T20:43:08.598Z,100155.84
2022-11-15T20:45:35.438Z,100156.25
2022-11-15T20:48:02.146Z,100157.00
2022-11-15T20:50:42.289Z,100152.56
2022-11-15T20:53:10.601Z,100148.31
2022-11-15T20:55:41.662Z,100152.75
2022-11-15T20:58:08.952Z,100154.28
2022-11-15T21:00:38.210Z,100148.22
2022-11-15T21:03:07.009Z,100152.38
2022-11-15T21:05:54.376Z,100146.06
2022-11-15T21:08:21.151Z,100145.97
2022-11-15T21:11:08.096Z,100149.00
2022-11-15T21:13:38.093Z,100152.22
2022-11-15T21:16:05.044Z,100144.91
2022-11-15T21:18:32.373Z,100148.41
2022-11-15T21:21:03.058Z,100147.00
2022-11-15T21:23:30.006Z,100139.84
2022-11-15T21:25:56.670Z,100137.47
2022-11-15T21:28:23.311Z,100138.81
2022-11-15T21:30:58.909Z,100138.53
2022-11-15T21:33:27.554Z,100140.94
2022-11-15T21:35:55.120Z,100143.81
2022-11-15T21:38:23.794Z,100147.34
2022-11-15T21:40:51.106Z,100141.81
2022-11-15T21:43:18.141Z,100143.88
2022-11-15T21:45:49.979Z,100143.28
2022-11-15T21:48:16.749Z,100137.59
2022-11-15T21:50:43.377Z,100137.50
2022-11-15T21:53:10.031Z,100133.00
2022-11-15T21:55:39.034Z,100137.44
2022-11-15T21:58:08.485Z,100142.78
2022-11-15T22:00:54.034Z,100145.53
2022-11-15T22:03:20.669Z,100134.97
2022-11-15T22:05:47.317Z,100139.13
2022-11-15T22:08:13.933Z,100136.56
2022-11-15T22:10:40.663Z,100133.94
2022-11-15T22:13:07.472Z,100127.22
2022-11-15T22:15:34.060Z,100126.63
2022-11-15T22:18:00.826Z,100131.53
2022-11-15T22:20:44.009Z,100118.13
2022-11-15T22:23:11.742Z,100118.91
2022-11-15T22:25:38.375Z,100109.16
2022-11-15T22:28:05.074Z,100106.63
2022-11-15T22:30:31.843Z,100108.13
2022-11-15T22:32:58.532Z,100094.16
2022-11-15T22:35:25.178Z,100097.66
2022-11-15T22:37:52.901Z,100089.72
2022-11-15T22:40:19.613Z,100087.88
2022-11-15T22:42:46.569Z,100087.13
2022-11-15T22:45:13.205Z,100088.91
2022-11-15T22:47:39.897Z,100086.03
2022-11-15T22:50:06.830Z,100079.47
2022-11-15T22:52:33.530Z,100076.66
2022-11-15T22:55:00.157Z,100075.75
2022-11-15T22:57:26.797Z,100072.22
2022-11-15T22:59:53.487Z,100067.09
2022-11-15T23:02:20.186Z,100073.81
2022-11-15T23:04:47.352Z,100064.78
2022-11-15T23:07:14.261Z,100066.59
2022-11-15T23:09:42.955Z,100069.47
2022-11-15T23:12:30.401Z,100076.19
2022-11-15T23:14:57.108Z,100076.97
2022-11-15T23:17:23.747Z,100068.75
2022-11-15T23:19:50.398Z,100069.88
2022-11-15T23:22:35.723Z,100062.53
2022-11-15T23:25:02.420Z,100071.63
2022-11-15T23:27:30.796Z,100059.81
2022-11-15T23:30:17.706Z,100071.91
2022-11-15T23:33:03.080Z,100067.72
2022-11-15T23:35:30.802Z,100072.94
2022-11-15T23:38:01.100Z,100070.03
2022-11-15T23:40:27.821Z,100058.66
2022-11-15T23:42:54.475Z,100064.28
2022-11-15T23:45:27.192Z,100060.84
2022-11-15T23:47:58.457Z,100055.16
2022-11-15T23:50:31.706Z,100055.06
2022-11-15T23:52:58.436Z,100053.31
2022-11-15T23:55:25.132Z,100063.28
2022-11-15T23:58:03.119Z,100052.13
